Portada
METAR-TAF:

METAR-TAF

Aeropuertos :

Aeropuerto Internacional de Damasco

Damasco, Siria

latitud: 33-25N, longitud: 036-31E, altitud: 608 m

Observación

El informe se hizo hace 17 minutos, a las 22:00 UTC
Viento 6 kt del oeste-suroeste
Temperatura 19°C
Humedad 46%
Presión 1013 hPa
Visibilidad 10 km o más
sin nubes por debajo de 1500 m y sin presencia de cumulonimbus.

METAR: OSDI 192200Z 25006KT CAVOK 19/07 Q1013

Hora: 01:17 (22:17 UTC)

Pronóstico

El informe se hizo hace 6 horas y 17 minutos, a las 16:00 UTC
Pronóstico válido del 19 a las 18 UTC al 20 a las 24 UTC
Viento 10 kt del suroeste
Visibilidad 10 km o más
sin nubes por debajo de 1500 m y sin presencia de cumulonimbus.
Temporalmente
del 20 a las 09 UTC al 20 a las 18 UTC
Viento 15 kt del oeste-suroeste con ráfagas de 25 kt
Visibilidad 10 km o más
Escasas nubes a una altura de 3000 ft

TAF: OSDI 191600Z 1918/2024 22010KT CAVOK TEMPO 2009/2018 24015G25KT 9999 FEW030

Observaciones y pronósticos meteorológicos de más de 4000 aeropuertos (mensajes METAR y TAF).

Los puntos amarillos y rojos representan las estaciones disponibles.

Ponga el ratón en el punto deseado para ver el nombre de la estación.

Haga clic para ver las observaciones y los pronósticos meteorológicos.

Para cambiar el mapa : haga clic en los botones verdes con una cruz de color negro para hacer un zoom, en el botón verde con un guión para alejar o en las flechas verdes para mapas adyacentes.


METAR-TAF: